createdAt,value
2017-09-02T00:01:35.511Z,9.50
2017-09-02T00:04:03.074Z,9.50
2017-09-02T00:06:30.640Z,10.20
2017-09-02T00:08:58.258Z,9.83
2017-09-02T00:11:25.819Z,10.30
2017-09-02T00:13:53.400Z,11.50
2017-09-02T00:16:21.016Z,11.60
2017-09-02T00:18:48.579Z,11.60
2017-09-02T00:21:16.155Z,12.77
2017-09-02T00:23:43.751Z,11.73
2017-09-02T00:26:11.319Z,12.20
2017-09-02T00:28:38.908Z,12.83
2017-09-02T00:31:06.547Z,12.90
2017-09-02T00:33:34.159Z,12.63
2017-09-02T00:36:01.732Z,12.10
2017-09-02T00:38:29.289Z,11.83
2017-09-02T00:40:56.876Z,12.20
2017-09-02T00:43:24.431Z,12.37
2017-09-02T00:45:52.018Z,11.60
2017-09-02T00:48:19.586Z,11.90
2017-09-02T00:50:47.174Z,11.83
2017-09-02T00:53:15.055Z,11.33
2017-09-02T00:55:42.644Z,12.83
2017-09-02T00:58:10.250Z,11.40
2017-09-02T01:00:37.851Z,11.10
2017-09-02T01:03:06.198Z,11.53
2017-09-02T01:05:33.767Z,10.33
2017-09-02T01:08:01.367Z,11.23
2017-09-02T01:10:28.927Z,10.20
2017-09-02T01:12:56.519Z,10.70
2017-09-02T01:15:24.094Z,11.87
2017-09-02T01:17:51.659Z,12.03
2017-09-02T01:20:19.368Z,12.07
2017-09-02T01:22:46.927Z,13.00
2017-09-02T01:25:14.635Z,13.40
2017-09-02T01:27:42.267Z,13.33
2017-09-02T01:33:06.562Z,14.43
2017-09-02T01:35:34.163Z,14.07
2017-09-02T01:38:01.723Z,14.30
2017-09-02T01:40:29.296Z,15.40
2017-09-02T01:42:56.881Z,17.67
2017-09-02T01:45:24.443Z,17.33
2017-09-02T01:47:52.072Z,17.53
2017-09-02T01:50:20.394Z,17.90
2017-09-02T01:52:47.959Z,18.87
2017-09-02T01:55:15.548Z,17.10
2017-09-02T01:57:43.120Z,16.30
2017-09-02T02:00:10.796Z,17.47
2017-09-02T02:02:38.364Z,16.13
2017-09-02T02:05:05.984Z,15.77
2017-09-02T02:07:33.618Z,17.27
2017-09-02T02:10:01.184Z,16.37
2017-09-02T02:12:28.771Z,15.90
2017-09-02T02:14:56.340Z,16.10
2017-09-02T02:17:24.095Z,16.80
2017-09-02T02:19:52.424Z,16.70
2017-09-02T02:22:20.115Z,16.20
2017-09-02T02:24:47.824Z,15.07
2017-09-02T02:27:15.411Z,12.37
2017-09-02T02:29:42.996Z,12.03
2017-09-02T02:32:10.699Z,12.47
2017-09-02T02:34:38.261Z,13.20
2017-09-02T02:37:05.832Z,14.20
2017-09-02T02:39:33.399Z,14.20
2017-09-02T02:42:01.028Z,15.97
2017-09-02T02:44:28.589Z,16.97
2017-09-02T02:46:56.167Z,16.87
2017-09-02T02:49:23.740Z,16.20
2017-09-02T02:51:51.457Z,15.43
2017-09-02T02:54:19.031Z,16.77
2017-09-02T02:56:46.616Z,16.57
2017-09-02T02:59:14.181Z,16.20
2017-09-02T03:01:41.755Z,18.17
2017-09-02T03:04:09.358Z,18.60
2017-09-02T03:06:36.915Z,20.20
2017-09-02T03:09:04.511Z,18.67
2017-09-02T03:11:32.092Z,19.37
2017-09-02T03:13:59.719Z,18.23
2017-09-02T03:16:27.347Z,19.57
2017-09-02T03:18:54.919Z,17.60
2017-09-02T03:21:22.523Z,16.80
2017-09-02T03:23:50.087Z,16.60
2017-09-02T03:26:17.642Z,15.70
2017-09-02T03:28:45.238Z,17.03
2017-09-02T03:31:12.805Z,13.57
2017-09-02T03:33:40.373Z,15.57
2017-09-02T03:36:08.015Z,14.83
2017-09-02T03:38:35.592Z,13.90
2017-09-02T03:41:03.194Z,14.53
2017-09-02T03:43:30.822Z,15.13
2017-09-02T03:45:58.379Z,14.57
2017-09-02T03:48:26.750Z,17.00
2017-09-02T03:50:54.312Z,15.17
2017-09-02T03:53:21.879Z,15.97
2017-09-02T03:55:49.459Z,15.73
2017-09-02T03:58:17.040Z,15.20
2017-09-02T04:00:44.644Z,16.90
2017-09-02T04:03:12.207Z,17.30
2017-09-02T04:05:39.771Z,18.20
2017-09-02T04:08:07.367Z,15.93
2017-09-02T04:10:34.927Z,17.23
2017-09-02T04:13:02.523Z,17.83
2017-09-02T04:15:30.135Z,17.43
2017-09-02T04:17:57.696Z,18.50
2017-09-02T04:20:25.434Z,18.50
2017-09-02T04:22:53.004Z,17.20
2017-09-02T04:25:20.563Z,18.50
2017-09-02T04:27:48.152Z,19.50
2017-09-02T04:30:15.719Z,18.83
2017-09-02T04:32:43.481Z,19.87
2017-09-02T04:35:11.040Z,20.87
2017-09-02T04:37:38.633Z,19.00
2017-09-02T04:40:06.200Z,25.97
2017-09-02T04:42:33.771Z,24.07
2017-09-02T04:45:01.387Z,23.37
2017-09-02T04:47:29.106Z,21.77
2017-09-02T04:49:56.692Z,21.87
2017-09-02T04:52:24.271Z,21.73
2017-09-02T04:54:51.875Z,22.70
2017-09-02T04:57:19.552Z,27.10
2017-09-02T04:59:47.119Z,27.10
2017-09-02T05:02:14.713Z,26.87
2017-09-02T05:04:42.279Z,26.77
2017-09-02T05:07:09.876Z,24.73
2017-09-02T05:09:37.443Z,25.27
2017-09-02T05:12:05.827Z,24.80
2017-09-02T05:14:33.423Z,23.90
2017-09-02T05:17:00.987Z,25.90
2017-09-02T05:19:28.552Z,26.73
2017-09-02T05:21:56.147Z,25.47
2017-09-02T05:24:23.711Z,27.40
2017-09-02T05:26:51.286Z,25.90
2017-09-02T05:29:18.880Z,25.80
2017-09-02T05:31:46.463Z,26.63
2017-09-02T05:34:14.075Z,24.90
2017-09-02T05:36:41.639Z,25.73
2017-09-02T05:39:09.222Z,25.70
2017-09-02T05:41:36.790Z,28.00
2017-09-02T05:44:04.527Z,26.10
2017-09-02T05:46:32.112Z,25.57
2017-09-02T05:48:59.699Z,25.27
2017-09-02T05:51:27.271Z,26.13
2017-09-02T05:53:54.876Z,26.63
2017-09-02T05:56:22.435Z,25.53
2017-09-02T05:58:49.994Z,26.57
2017-09-02T06:01:17.719Z,25.73
2017-09-02T06:03:45.281Z,27.93
2017-09-02T06:06:12.891Z,25.00
2017-09-02T06:08:40.471Z,25.80
2017-09-02T06:11:08.031Z,26.40
2017-09-02T06:13:35.619Z,24.67
2017-09-02T06:16:03.207Z,25.87
2017-09-02T06:18:30.840Z,25.20
2017-09-02T06:20:58.399Z,25.83
2017-09-02T06:23:25.995Z,25.73
2017-09-02T06:25:53.688Z,24.97
2017-09-02T06:28:21.270Z,24.00
2017-09-02T06:30:48.886Z,25.63
2017-09-02T06:33:16.447Z,25.70
2017-09-02T06:35:44.008Z,25.13
2017-09-02T06:38:11.616Z,25.30
2017-09-02T06:40:39.201Z,25.73
2017-09-02T06:43:06.783Z,25.63
2017-09-02T06:45:34.371Z,22.93
2017-09-02T06:48:01.971Z,23.90
2017-09-02T06:50:29.563Z,24.60
2017-09-02T06:52:57.198Z,23.37
2017-09-02T06:55:24.768Z,23.50
2017-09-02T06:57:52.431Z,23.87
2017-09-02T07:00:20.071Z,22.93
2017-09-02T07:02:47.635Z,24.30
2017-09-02T07:05:15.239Z,23.77
2017-09-02T07:07:42.808Z,24.10
2017-09-02T07:10:10.488Z,24.90
2017-09-02T07:12:38.062Z,25.57
2017-09-02T07:15:05.759Z,24.63
2017-09-02T07:17:33.333Z,23.37
2017-09-02T07:20:00.907Z,25.27
2017-09-02T07:22:28.496Z,23.17
2017-09-02T07:24:56.059Z,22.20
2017-09-02T07:27:23.835Z,24.50
2017-09-02T07:29:51.470Z,24.17
2017-09-02T07:32:19.184Z,23.73
2017-09-02T07:34:46.755Z,25.80
2017-09-02T07:37:15.115Z,24.83
2017-09-02T07:39:42.771Z,26.23
2017-09-02T07:42:10.382Z,26.03
2017-09-02T07:44:37.967Z,25.07
2017-09-02T07:47:05.531Z,24.80
2017-09-02T07:49:33.119Z,24.10
2017-09-02T07:52:01.449Z,24.53
2017-09-02T07:54:29.043Z,22.83
2017-09-02T07:56:56.630Z,23.47
2017-09-02T07:59:24.199Z,22.77
2017-09-02T08:01:51.823Z,23.10
2017-09-02T08:04:19.439Z,22.90
2017-09-02T08:06:47.011Z,22.03
2017-09-02T08:09:14.701Z,23.93
2017-09-02T08:11:42.275Z,23.97
2017-09-02T08:14:09.848Z,22.57
2017-09-02T08:16:37.556Z,23.90
2017-09-02T08:19:05.136Z,21.80
2017-09-02T08:21:32.723Z,22.93
2017-09-02T08:24:00.310Z,22.40
2017-09-02T08:26:27.920Z,22.80
2017-09-02T08:28:55.675Z,21.80
2017-09-02T08:31:23.239Z,21.37
2017-09-02T08:33:51.599Z,19.77
2017-09-02T08:36:19.163Z,21.80
2017-09-02T08:38:46.752Z,20.20
2017-09-02T08:41:14.332Z,21.50
2017-09-02T08:43:41.923Z,19.83
2017-09-02T08:46:09.508Z,21.03
2017-09-02T08:48:37.095Z,20.57
2017-09-02T08:51:04.716Z,17.77
2017-09-02T08:53:32.283Z,18.10
2017-09-02T08:55:59.881Z,15.20
2017-09-02T08:58:27.464Z,16.00
2017-09-02T09:00:55.033Z,15.50
2017-09-02T09:03:22.637Z,15.97
2017-09-02T09:05:50.252Z,15.73
2017-09-02T09:08:17.813Z,14.70
2017-09-02T09:10:45.411Z,16.50
2017-09-02T09:13:13.061Z,15.80
2017-09-02T09:15:40.659Z,17.27
2017-09-02T09:18:08.222Z,16.27
2017-09-02T09:20:35.787Z,15.97
2017-09-02T09:23:03.392Z,14.77
2017-09-02T09:25:31.927Z,16.27
2017-09-02T09:27:59.591Z,15.13
2017-09-02T09:30:27.156Z,15.57
2017-09-02T09:32:54.809Z,14.50
2017-09-02T09:35:22.427Z,15.87
2017-09-02T09:37:50.013Z,14.03
2017-09-02T09:40:17.615Z,12.90
2017-09-02T09:42:45.188Z,12.37
2017-09-02T09:45:12.756Z,12.30
2017-09-02T09:47:40.350Z,11.13
2017-09-02T09:50:08.078Z,9.90
2017-09-02T09:52:35.660Z,7.10
2017-09-02T09:55:03.215Z,6.30
2017-09-02T09:57:30.840Z,7.10
2017-09-02T09:59:58.420Z,7.50
2017-09-02T10:02:26.016Z,9.53
2017-09-02T10:04:53.616Z,8.10
2017-09-02T10:07:21.194Z,6.80
2017-09-02T10:09:48.762Z,6.77
2017-09-02T10:12:16.343Z,7.77
2017-09-02T10:14:43.978Z,7.43
2017-09-02T10:17:11.575Z,6.30
2017-09-02T10:19:39.148Z,6.53
2017-09-02T10:22:06.720Z,7.40
2017-09-02T10:24:34.321Z,6.20
2017-09-02T10:27:01.844Z,6.80
2017-09-02T10:29:30.194Z,6.93
2017-09-02T10:31:57.759Z,6.90
2017-09-02T10:34:25.356Z,7.20
2017-09-02T10:36:52.952Z,7.17
2017-09-02T10:39:20.549Z,7.00
2017-09-02T10:41:48.111Z,6.80
2017-09-02T10:44:15.704Z,7.40
2017-09-02T10:46:43.347Z,6.83
2017-09-02T10:49:10.984Z,7.37
2017-09-02T10:51:38.655Z,5.70
2017-09-02T10:54:06.235Z,6.70
2017-09-02T10:56:33.831Z,6.60
2017-09-02T10:59:01.399Z,6.43
2017-09-02T11:01:29.199Z,6.80
2017-09-02T11:03:57.618Z,6.33
2017-09-02T11:06:25.189Z,5.40
2017-09-02T11:08:52.785Z,5.90
2017-09-02T11:11:20.356Z,6.30
2017-09-02T11:13:47.952Z,5.90
2017-09-02T11:16:15.506Z,6.23
2017-09-02T11:18:43.139Z,5.30
2017-09-02T11:21:10.731Z,4.73
2017-09-02T11:23:38.296Z,4.60
2017-09-02T11:26:05.852Z,6.90
2017-09-02T11:28:33.524Z,5.90
2017-09-02T11:31:01.090Z,5.23
2017-09-02T11:33:28.648Z,5.30
2017-09-02T11:35:56.235Z,7.10
2017-09-02T11:38:23.801Z,5.83
2017-09-02T11:40:51.395Z,5.63
2017-09-02T11:43:19.000Z,4.70
2017-09-02T11:45:46.603Z,5.10
2017-09-02T11:48:14.264Z,4.83
2017-09-02T11:50:41.890Z,5.87
2017-09-02T11:53:09.497Z,5.70
2017-09-02T11:55:37.083Z,4.67
2017-09-02T11:58:04.635Z,3.93
2017-09-02T12:00:32.236Z,4.60
2017-09-02T12:02:59.902Z,4.10
2017-09-02T12:05:27.475Z,3.80
2017-09-02T12:07:55.028Z,4.97
2017-09-02T12:10:22.631Z,12.17
2017-09-02T12:12:50.213Z,5.40
2017-09-02T12:15:17.828Z,5.03
2017-09-02T12:17:45.406Z,7.00
2017-09-02T12:20:12.975Z,6.93
2017-09-02T12:22:40.556Z,8.40
2017-09-02T12:25:08.124Z,8.03
2017-09-02T12:27:35.740Z,7.73
2017-09-02T12:30:03.327Z,9.40
2017-09-02T12:32:30.898Z,6.87
2017-09-02T12:34:58.624Z,6.77
2017-09-02T12:37:26.234Z,6.27
2017-09-02T12:39:53.832Z,6.90
2017-09-02T12:42:21.439Z,9.33
2017-09-02T12:44:49.055Z,8.40
2017-09-02T12:47:16.784Z,5.10
2017-09-02T12:49:44.336Z,5.17
2017-09-02T12:52:11.897Z,4.80
2017-09-02T12:54:39.496Z,4.77
2017-09-02T12:57:07.069Z,5.10
2017-09-02T12:59:34.652Z,4.70
2017-09-02T13:02:02.217Z,4.27
2017-09-02T13:04:29.864Z,4.27
2017-09-02T13:06:57.440Z,4.10
2017-09-02T13:09:25.036Z,3.20
2017-09-02T13:11:52.656Z,2.20
2017-09-02T13:14:20.209Z,2.47
2017-09-02T13:16:47.795Z,3.03
2017-09-02T13:19:15.463Z,4.50
2017-09-02T13:21:43.043Z,3.50
2017-09-02T13:24:10.646Z,2.90
2017-09-02T13:26:38.208Z,2.90
2017-09-02T13:29:05.824Z,2.60
2017-09-02T13:31:33.376Z,3.80
2017-09-02T13:34:00.975Z,2.90
2017-09-02T13:36:28.538Z,3.47
2017-09-02T13:38:56.323Z,3.40
2017-09-02T13:41:23.888Z,3.93
2017-09-02T13:43:51.447Z,4.30
2017-09-02T13:46:19.200Z,4.73
2017-09-02T13:48:46.771Z,4.10
2017-09-02T13:51:14.365Z,5.23
2017-09-02T13:53:41.920Z,4.13
2017-09-02T13:56:09.489Z,5.30
2017-09-02T13:58:37.056Z,5.97
2017-09-02T14:01:04.627Z,4.30
2017-09-02T14:03:32.275Z,5.23
2017-09-02T14:05:59.837Z,4.83
2017-09-02T14:08:27.406Z,5.67
2017-09-02T14:10:55.000Z,4.97
2017-09-02T14:13:22.579Z,5.87
2017-09-02T14:15:50.167Z,5.00
2017-09-02T14:18:17.726Z,6.40
2017-09-02T14:20:45.328Z,5.83
2017-09-02T14:23:12.932Z,5.73
2017-09-02T14:25:40.492Z,5.97
2017-09-02T14:28:08.085Z,5.60
2017-09-02T14:30:35.675Z,5.07
2017-09-02T14:33:03.244Z,5.40
2017-09-02T14:35:30.864Z,5.00
2017-09-02T14:37:58.536Z,5.30
2017-09-02T14:40:26.176Z,5.30
2017-09-02T14:42:53.730Z,5.43
2017-09-02T14:45:21.335Z,6.00
2017-09-02T14:47:48.901Z,5.63
2017-09-02T14:50:16.520Z,4.83
2017-09-02T14:52:44.081Z,4.40
2017-09-02T14:55:11.635Z,4.57
2017-09-02T14:57:39.406Z,4.53
2017-09-02T15:00:06.976Z,4.20
2017-09-02T15:02:34.694Z,4.47
2017-09-02T15:05:02.257Z,4.83
2017-09-02T15:07:29.982Z,4.53
2017-09-02T15:09:57.573Z,4.97
2017-09-02T15:12:25.179Z,4.33
2017-09-02T15:14:52.737Z,5.33
2017-09-02T15:17:20.315Z,4.53
2017-09-02T15:19:47.872Z,5.73
2017-09-02T15:22:15.568Z,4.70
2017-09-02T15:24:43.124Z,5.07
2017-09-02T15:27:10.688Z,5.60
2017-09-02T15:29:38.312Z,4.40
2017-09-02T15:32:05.883Z,4.87
2017-09-02T15:34:34.208Z,4.37
2017-09-02T15:37:01.810Z,5.40
2017-09-02T15:39:29.400Z,5.50
2017-09-02T15:41:56.995Z,4.70
2017-09-02T15:44:24.610Z,4.60
2017-09-02T15:46:52.271Z,4.73
2017-09-02T15:49:19.836Z,5.07
2017-09-02T15:51:48.207Z,5.03
2017-09-02T15:54:15.786Z,5.40
2017-09-02T15:56:43.447Z,5.20
2017-09-02T15:59:11.014Z,5.20
2017-09-02T16:01:38.631Z,5.93
2017-09-02T16:04:06.204Z,4.47
2017-09-02T16:06:33.764Z,4.93
2017-09-02T16:09:01.361Z,4.97
2017-09-02T16:11:28.953Z,5.57
2017-09-02T16:13:56.569Z,6.13
2017-09-02T16:16:24.143Z,5.30
2017-09-02T16:18:51.739Z,5.90
2017-09-02T16:21:19.292Z,6.50
2017-09-02T16:23:46.875Z,5.90
2017-09-02T16:26:14.438Z,6.10
2017-09-02T16:28:42.038Z,5.10
2017-09-02T16:31:09.599Z,5.53
2017-09-02T16:33:37.171Z,5.67
2017-09-02T16:36:04.868Z,5.23
2017-09-02T16:38:32.603Z,5.43
2017-09-02T16:41:00.171Z,4.93
2017-09-02T16:43:28.604Z,5.87
2017-09-02T16:45:56.199Z,5.60
2017-09-02T16:48:23.760Z,5.40
2017-09-02T16:50:51.344Z,5.10
2017-09-02T16:53:18.926Z,5.83
2017-09-02T16:55:46.524Z,5.43
2017-09-02T16:58:14.095Z,5.60
2017-09-02T17:00:41.672Z,5.70
2017-09-02T17:03:09.267Z,6.03
2017-09-02T17:05:36.872Z,5.57
2017-09-02T17:08:04.447Z,5.20
2017-09-02T17:10:32.016Z,6.17
2017-09-02T17:12:59.603Z,6.07
2017-09-02T17:15:27.175Z,6.00
2017-09-02T17:17:54.765Z,6.13
2017-09-02T17:20:22.326Z,5.70
2017-09-02T17:22:49.961Z,5.80
2017-09-02T17:25:17.531Z,5.20
2017-09-02T17:27:45.101Z,4.70
2017-09-02T17:30:12.848Z,4.50
2017-09-02T17:32:40.424Z,4.67
2017-09-02T17:35:08.039Z,4.10
2017-09-02T17:37:35.703Z,4.50
2017-09-02T17:40:03.283Z,4.13
2017-09-02T17:42:30.884Z,4.53
2017-09-02T17:44:58.459Z,4.23
2017-09-02T17:47:26.194Z,4.17
2017-09-02T17:49:53.747Z,4.37
2017-09-02T17:52:21.420Z,4.63
2017-09-02T17:54:49.015Z,4.67
2017-09-02T17:57:16.594Z,4.97
2017-09-02T17:59:44.196Z,5.10
2017-09-02T18:02:11.773Z,4.70
2017-09-02T18:04:39.372Z,4.93
2017-09-02T18:07:06.968Z,4.60
2017-09-02T18:09:34.539Z,4.90
2017-09-02T18:12:02.169Z,5.00
2017-09-02T18:14:29.819Z,5.10
2017-09-02T18:16:57.501Z,4.63
2017-09-02T18:19:25.099Z,4.63
2017-09-02T18:21:52.696Z,4.80
2017-09-02T18:24:20.303Z,4.00
2017-09-02T18:26:47.928Z,5.20
2017-09-02T18:29:15.484Z,4.30
2017-09-02T18:31:43.048Z,5.10
2017-09-02T18:34:10.814Z,5.53
2017-09-02T18:36:38.392Z,5.50
2017-09-02T18:39:05.975Z,5.83
2017-09-02T18:41:33.543Z,4.70
2017-09-02T18:44:01.317Z,5.00
2017-09-02T18:46:28.911Z,5.37
2017-09-02T18:48:56.483Z,4.87
2017-09-02T18:51:24.427Z,5.80
2017-09-02T18:53:51.999Z,5.10
2017-09-02T18:56:19.569Z,5.30
2017-09-02T18:58:47.131Z,6.10
2017-09-02T19:01:14.691Z,5.67
2017-09-02T19:03:42.267Z,5.27
2017-09-02T19:06:09.868Z,5.70
2017-09-02T19:08:37.470Z,5.70
2017-09-02T19:11:05.040Z,6.13
2017-09-02T19:13:32.639Z,6.17
2017-09-02T19:16:00.375Z,5.80
2017-09-02T19:18:27.914Z,6.23
2017-09-02T19:20:55.520Z,5.70
2017-09-02T19:23:23.080Z,5.83
2017-09-02T19:25:50.703Z,6.20
2017-09-02T19:28:18.296Z,6.70
2017-09-02T19:30:45.875Z,6.70
2017-09-02T19:33:13.612Z,5.93
2017-09-02T19:35:41.168Z,6.77
2017-09-02T19:38:08.771Z,7.57
2017-09-02T19:40:36.347Z,6.83
2017-09-02T19:43:03.932Z,7.13
2017-09-02T19:45:31.500Z,7.63
2017-09-02T19:47:59.112Z,7.30
2017-09-02T19:50:26.742Z,7.53
2017-09-02T19:52:54.312Z,8.00
2017-09-02T19:55:22.057Z,8.10
2017-09-02T19:57:49.620Z,7.90
2017-09-02T20:00:17.304Z,6.73
2017-09-02T20:02:44.968Z,7.30
2017-09-02T20:05:12.528Z,7.00
2017-09-02T20:07:40.184Z,7.80
2017-09-02T20:10:07.776Z,7.40
2017-09-02T20:12:35.344Z,6.33
2017-09-02T20:15:02.920Z,7.23
2017-09-02T20:17:30.567Z,7.17
2017-09-02T20:19:58.162Z,6.90
2017-09-02T20:22:25.764Z,6.73
2017-09-02T20:24:53.334Z,7.40
2017-09-02T20:27:20.929Z,6.50
2017-09-02T20:29:48.487Z,6.97
2017-09-02T20:32:16.263Z,7.30
2017-09-02T20:34:43.852Z,6.87
2017-09-02T20:37:11.856Z,6.97
2017-09-02T20:39:39.439Z,7.27
2017-09-02T20:42:07.056Z,5.90
2017-09-02T20:44:34.708Z,6.80
2017-09-02T20:47:02.293Z,8.13
2017-09-02T20:49:29.881Z,7.00
2017-09-02T20:51:57.513Z,7.70
2017-09-02T20:54:25.088Z,7.03
2017-09-02T20:56:52.659Z,6.23
2017-09-02T20:59:20.249Z,7.17
2017-09-02T21:01:47.895Z,7.00
2017-09-02T21:04:15.476Z,6.10
2017-09-02T21:06:43.073Z,7.00
2017-09-02T21:09:10.676Z,7.43
2017-09-02T21:11:38.348Z,7.50
2017-09-02T21:14:05.911Z,7.97
2017-09-02T21:16:33.523Z,8.97
2017-09-02T21:19:01.105Z,8.73
2017-09-02T21:21:28.717Z,8.27
2017-09-02T21:23:56.311Z,7.77
2017-09-02T21:26:23.885Z,8.47
2017-09-02T21:28:52.252Z,8.50
2017-09-02T21:31:19.816Z,7.70
2017-09-02T21:33:47.444Z,9.10
2017-09-02T21:36:15.015Z,8.60
2017-09-02T21:38:42.697Z,8.27
2017-09-02T21:41:10.316Z,9.30
2017-09-02T21:43:37.901Z,8.70
2017-09-02T21:46:06.286Z,8.90
2017-09-02T21:48:33.852Z,8.93
2017-09-02T21:51:01.451Z,8.83
2017-09-02T21:53:29.028Z,9.00
2017-09-02T21:55:56.630Z,8.43
2017-09-02T21:58:24.301Z,8.87
2017-09-02T22:00:51.867Z,9.70
2017-09-02T22:03:19.501Z,9.47
2017-09-02T22:05:47.090Z,9.30
2017-09-02T22:08:14.711Z,9.60
2017-09-02T22:10:42.367Z,9.67
2017-09-02T22:13:09.983Z,9.00
2017-09-02T22:15:37.556Z,9.53
2017-09-02T22:18:05.161Z,10.43
2017-09-02T22:20:32.811Z,9.87
2017-09-02T22:23:00.500Z,10.87
2017-09-02T22:25:28.080Z,11.10
2017-09-02T22:27:55.739Z,10.60
2017-09-02T22:30:23.307Z,10.77
2017-09-02T22:32:50.920Z,9.93
2017-09-02T22:35:18.505Z,10.47
2017-09-02T22:37:46.171Z,10.93
2017-09-02T22:40:13.776Z,11.50
2017-09-02T22:42:41.347Z,10.80
2017-09-02T22:45:08.952Z,10.87
2017-09-02T22:47:36.519Z,10.27
2017-09-02T22:50:04.109Z,11.93
2017-09-02T22:52:31.675Z,11.10
2017-09-02T22:54:59.345Z,11.30
2017-09-02T22:57:26.959Z,11.13
2017-09-02T22:59:54.520Z,12.17
2017-09-02T23:02:22.130Z,12.50
2017-09-02T23:04:49.813Z,14.00
2017-09-02T23:07:17.428Z,14.00
2017-09-02T23:09:44.987Z,13.20
2017-09-02T23:12:12.587Z,12.83
2017-09-02T23:14:40.188Z,14.00
2017-09-02T23:17:07.753Z,11.07
2017-09-02T23:19:35.388Z,12.37
2017-09-02T23:22:02.959Z,12.60
2017-09-02T23:24:30.539Z,13.50
2017-09-02T23:26:58.209Z,13.60
2017-09-02T23:29:25.761Z,12.70
2017-09-02T23:31:53.363Z,12.17
2017-09-02T23:34:20.929Z,9.67
2017-09-02T23:36:48.603Z,10.90
2017-09-02T23:39:16.198Z,9.83
2017-09-02T23:41:43.782Z,11.40
2017-09-02T23:44:11.373Z,10.53
2017-09-02T23:46:39.008Z,10.50
2017-09-02T23:49:06.620Z,11.20
2017-09-02T23:51:34.297Z,10.10
2017-09-02T23:54:01.907Z,9.17
2017-09-02T23:56:29.478Z,10.70
2017-09-02T23:58:57.078Z,9.70
